createdAt,value
2018-03-27T00:00:53.598Z,3.20
2018-03-27T00:03:21.064Z,3.10
2018-03-27T00:05:48.526Z,3.20
2018-03-27T00:08:16.759Z,3.20
2018-03-27T00:10:44.235Z,3.10
2018-03-27T00:13:11.682Z,3.20
2018-03-27T00:15:39.143Z,3.30
2018-03-27T00:18:06.620Z,3.30
2018-03-27T00:20:34.845Z,3.30
2018-03-27T00:23:02.320Z,3.30
2018-03-27T00:25:29.799Z,3.30
2018-03-27T00:28:09.275Z,3.30
2018-03-27T00:30:48.779Z,3.20
2018-03-27T00:33:28.100Z,3.10
2018-03-27T00:36:07.502Z,3.10
2018-03-27T00:38:46.959Z,3.10
2018-03-27T00:41:20.054Z,3.10
2018-03-27T00:43:47.514Z,2.90
2018-03-27T00:46:14.992Z,2.70
2018-03-27T00:48:42.454Z,2.70
2018-03-27T00:51:09.924Z,2.50
2018-03-27T00:53:38.146Z,2.40
2018-03-27T00:56:05.611Z,2.30
2018-03-27T00:58:33.098Z,2.40
2018-03-27T01:01:00.558Z,2.30
2018-03-27T01:03:28.369Z,2.30
2018-03-27T01:05:55.834Z,2.30
2018-03-27T01:08:23.303Z,2.30
2018-03-27T01:10:50.767Z,2.30
2018-03-27T01:13:19.012Z,2.30
2018-03-27T01:15:46.479Z,2.30
2018-03-27T01:18:13.945Z,2.40
2018-03-27T01:20:42.184Z,2.40
2018-03-27T01:23:09.641Z,2.40
2018-03-27T01:25:37.122Z,2.50
2018-03-27T01:28:04.606Z,2.50
2018-03-27T01:30:32.070Z,2.50
2018-03-27T01:32:59.540Z,2.60
2018-03-27T01:35:27.018Z,2.60
2018-03-27T01:37:55.258Z,2.60
2018-03-27T01:40:22.725Z,2.60
2018-03-27T01:42:50.197Z,2.70
2018-03-27T01:45:18.427Z,2.70
2018-03-27T01:47:46.654Z,2.70
2018-03-27T01:50:14.886Z,2.80
2018-03-27T01:52:42.367Z,2.70
2018-03-27T01:55:09.826Z,2.80
2018-03-27T01:57:38.075Z,2.90
2018-03-27T02:00:05.540Z,2.90
2018-03-27T02:02:33.014Z,2.90
2018-03-27T02:05:00.487Z,2.90
2018-03-27T02:07:28.730Z,3.00
2018-03-27T02:09:56.194Z,3.00
2018-03-27T02:12:30.011Z,3.00
2018-03-27T02:15:03.976Z,3.00
2018-03-27T02:17:37.154Z,3.00
2018-03-27T02:20:10.457Z,3.00
2018-03-27T02:22:38.534Z,3.00
2018-03-27T02:25:05.997Z,3.00
2018-03-27T02:27:33.477Z,3.00
2018-03-27T02:30:00.959Z,3.00
2018-03-27T02:32:29.206Z,3.10
2018-03-27T02:34:56.737Z,3.00
2018-03-27T02:37:24.155Z,3.00
2018-03-27T02:39:51.639Z,3.10
2018-03-27T02:42:19.098Z,3.10
2018-03-27T02:44:46.582Z,3.10
2018-03-27T02:47:14.054Z,3.10
2018-03-27T02:49:41.508Z,3.10
2018-03-27T02:52:08.992Z,3.10
2018-03-27T02:54:37.314Z,3.10
2018-03-27T02:57:05.506Z,3.10
2018-03-27T02:59:32.987Z,3.00
2018-03-27T03:02:00.454Z,3.10
2018-03-27T03:04:28.691Z,3.10
2018-03-27T03:06:56.176Z,3.00
2018-03-27T03:09:24.402Z,3.20
2018-03-27T03:11:51.879Z,3.10
2018-03-27T03:14:19.355Z,3.20
2018-03-27T03:16:46.814Z,3.20
2018-03-27T03:19:14.303Z,3.20
2018-03-27T03:21:43.534Z,3.10
2018-03-27T03:24:11.006Z,3.10
2018-03-27T03:26:38.462Z,3.20
2018-03-27T03:29:05.938Z,3.20
2018-03-27T03:31:33.398Z,3.20
2018-03-27T03:34:00.858Z,3.20
2018-03-27T03:36:29.105Z,3.10
2018-03-27T03:38:56.579Z,3.10
2018-03-27T03:41:24.055Z,3.10
2018-03-27T03:43:52.309Z,3.10
2018-03-27T03:46:19.780Z,3.10
2018-03-27T03:48:48.008Z,3.20
2018-03-27T03:51:15.484Z,3.10
2018-03-27T03:53:43.627Z,3.20
2018-03-27T03:56:11.186Z,3.10
2018-03-27T03:58:38.661Z,3.20
2018-03-27T04:01:06.896Z,3.20
2018-03-27T04:03:36.019Z,3.20
2018-03-27T04:06:04.354Z,3.10
2018-03-27T04:08:32.590Z,3.20
2018-03-27T04:11:00.056Z,3.20
2018-03-27T04:13:27.547Z,3.20
2018-03-27T04:15:55.771Z,3.30
2018-03-27T04:18:23.241Z,3.20
2018-03-27T04:20:50.817Z,3.20
2018-03-27T04:23:18.275Z,3.30
2018-03-27T04:25:45.747Z,3.30
2018-03-27T04:28:13.986Z,3.30
2018-03-27T04:30:41.459Z,3.30
2018-03-27T04:33:08.938Z,3.30
2018-03-27T04:35:37.189Z,3.40
2018-03-27T04:38:04.658Z,3.40
2018-03-27T04:40:32.162Z,3.40
2018-03-27T04:42:59.617Z,3.40
2018-03-27T04:45:27.085Z,3.40
2018-03-27T04:47:54.565Z,3.40
2018-03-27T04:50:22.257Z,3.50
2018-03-27T04:52:49.715Z,3.40
2018-03-27T04:55:17.955Z,3.50
2018-03-27T04:57:45.422Z,3.40
2018-03-27T05:00:12.887Z,3.50
2018-03-27T05:02:40.363Z,3.50
2018-03-27T05:05:08.593Z,3.50
2018-03-27T05:07:36.062Z,3.40
2018-03-27T05:10:03.586Z,3.50
2018-03-27T05:12:31.047Z,3.40
2018-03-27T05:14:58.506Z,3.50
2018-03-27T05:17:25.989Z,3.40
2018-03-27T05:19:53.458Z,3.40
2018-03-27T05:22:20.923Z,3.40
2018-03-27T05:24:48.400Z,3.40
2018-03-27T05:27:16.638Z,3.50
2018-03-27T05:29:44.101Z,3.40
2018-03-27T05:32:11.610Z,3.50
2018-03-27T05:34:39.807Z,3.50
2018-03-27T05:37:07.278Z,3.40
2018-03-27T05:39:34.765Z,3.50
2018-03-27T05:42:02.987Z,3.40
2018-03-27T05:44:30.462Z,3.40
2018-03-27T05:46:57.995Z,3.50
2018-03-27T05:49:25.455Z,3.40
2018-03-27T05:51:52.915Z,3.40
2018-03-27T05:54:22.064Z,3.40
2018-03-27T05:56:50.307Z,3.40
2018-03-27T05:59:17.775Z,3.40
2018-03-27T06:01:45.264Z,3.40
2018-03-27T06:04:13.501Z,3.50
2018-03-27T06:06:40.970Z,3.40
2018-03-27T06:09:08.446Z,3.50
2018-03-27T06:11:36.687Z,3.60
2018-03-27T06:14:05.064Z,3.50
2018-03-27T06:16:32.569Z,3.60
2018-03-27T06:19:00.778Z,3.70
2018-03-27T06:21:28.241Z,3.70
2018-03-27T06:23:56.515Z,3.70
2018-03-27T06:26:23.981Z,3.70
2018-03-27T06:28:51.439Z,3.60
2018-03-27T06:31:18.925Z,3.60
2018-03-27T06:33:46.416Z,3.60
2018-03-27T06:36:13.839Z,3.70
2018-03-27T06:38:41.314Z,3.70
2018-03-27T06:41:09.547Z,3.80
2018-03-27T06:43:36.998Z,3.80
2018-03-27T06:46:04.486Z,3.90
2018-03-27T06:48:31.943Z,4.00
2018-03-27T06:51:00.198Z,4.20
2018-03-27T06:53:27.667Z,4.20
2018-03-27T06:55:55.128Z,4.30
2018-03-27T06:58:24.096Z,4.40
2018-03-27T07:00:51.580Z,4.40
2018-03-27T07:03:19.045Z,4.50
2018-03-27T07:05:47.272Z,4.60
2018-03-27T07:08:14.765Z,4.60
2018-03-27T07:10:43.086Z,4.70
2018-03-27T07:13:11.930Z,4.80
2018-03-27T07:15:39.399Z,4.80
2018-03-27T07:18:07.631Z,4.90
2018-03-27T07:20:35.102Z,4.90
2018-03-27T07:23:02.631Z,4.90
2018-03-27T07:25:30.094Z,4.90
2018-03-27T07:27:57.548Z,5.00
2018-03-27T07:30:25.030Z,5.00
2018-03-27T07:32:52.490Z,5.00
2018-03-27T07:35:19.955Z,5.00
2018-03-27T07:37:47.429Z,5.00
2018-03-27T07:40:15.680Z,5.10
2018-03-27T07:42:43.147Z,5.10
2018-03-27T07:45:10.631Z,5.10
2018-03-27T07:47:38.868Z,5.20
2018-03-27T07:50:06.323Z,5.20
2018-03-27T07:52:33.794Z,5.30
2018-03-27T07:55:02.262Z,5.50
2018-03-27T07:57:29.714Z,5.50
2018-03-27T07:59:57.196Z,5.60
2018-03-27T08:02:24.656Z,5.60
2018-03-27T08:04:52.889Z,5.80
2018-03-27T08:07:20.370Z,5.80
2018-03-27T08:09:47.826Z,5.90
2018-03-27T08:12:16.064Z,6.30
2018-03-27T08:14:44.387Z,6.20
2018-03-27T08:17:11.843Z,6.40
2018-03-27T08:19:39.299Z,6.60
2018-03-27T08:22:06.766Z,6.80
2018-03-27T08:24:35.002Z,6.90
2018-03-27T08:27:02.508Z,6.90
2018-03-27T08:29:30.762Z,6.90
2018-03-27T08:31:58.219Z,6.90
2018-03-27T08:34:25.717Z,7.00
2018-03-27T08:36:53.934Z,7.20
2018-03-27T08:39:21.399Z,7.20
2018-03-27T08:41:48.859Z,7.20
2018-03-27T08:44:16.332Z,7.20
2018-03-27T08:46:44.567Z,7.30
2018-03-27T08:49:12.039Z,7.30
2018-03-27T08:51:39.903Z,7.30
2018-03-27T08:54:08.192Z,7.50
2018-03-27T08:56:35.610Z,7.50
2018-03-27T08:59:03.103Z,7.60
2018-03-27T09:01:30.571Z,7.60
2018-03-27T09:03:58.035Z,7.80
2018-03-27T09:06:26.282Z,8.00
2018-03-27T09:08:53.756Z,8.00
2018-03-27T09:11:21.220Z,8.00
2018-03-27T09:13:48.704Z,8.10
2018-03-27T09:16:16.177Z,8.00
2018-03-27T09:18:43.624Z,8.00
2018-03-27T09:21:11.104Z,8.10
2018-03-27T09:23:38.569Z,8.10
2018-03-27T09:26:06.030Z,8.10
2018-03-27T09:28:33.544Z,8.10
2018-03-27T09:31:01.010Z,8.10
2018-03-27T09:33:28.454Z,8.00
2018-03-27T09:35:55.937Z,8.10
2018-03-27T09:38:24.967Z,8.20
2018-03-27T09:40:52.422Z,8.20
2018-03-27T09:43:19.904Z,8.30
2018-03-27T09:45:48.132Z,8.50
2018-03-27T09:48:15.614Z,8.50
2018-03-27T09:50:43.091Z,8.50
2018-03-27T09:53:11.318Z,8.60
2018-03-27T09:55:38.775Z,8.60
2018-03-27T09:58:06.255Z,8.70
2018-03-27T10:00:39.378Z,8.70
2018-03-27T10:03:07.630Z,8.80
2018-03-27T10:05:35.097Z,8.80
2018-03-27T10:08:03.218Z,8.90
2018-03-27T10:10:30.727Z,8.90
2018-03-27T10:12:59.976Z,9.10
2018-03-27T10:15:27.427Z,9.10
2018-03-27T10:17:54.895Z,9.10
2018-03-27T10:20:23.145Z,9.10
2018-03-27T10:22:50.611Z,9.10
2018-03-27T10:25:18.087Z,9.20
2018-03-27T10:27:45.552Z,9.30
2018-03-27T10:30:13.011Z,9.40
2018-03-27T10:32:40.490Z,9.50
2018-03-27T10:35:07.958Z,9.60
2018-03-27T10:37:36.179Z,9.90
2018-03-27T10:40:04.393Z,9.90
2018-03-27T10:42:31.856Z,10.10
2018-03-27T10:44:59.319Z,10.10
2018-03-27T10:47:27.566Z,10.30
2018-03-27T10:49:55.039Z,10.30
2018-03-27T10:52:22.546Z,10.30
2018-03-27T10:54:50.031Z,10.30
2018-03-27T10:57:17.493Z,10.40
2018-03-27T10:59:45.017Z,10.40
2018-03-27T11:02:12.490Z,10.50
2018-03-27T11:04:39.960Z,10.50
2018-03-27T11:07:07.435Z,10.50
2018-03-27T11:09:34.935Z,10.50
2018-03-27T11:12:02.631Z,10.30
2018-03-27T11:14:30.094Z,10.20
2018-03-27T11:16:57.578Z,10.20
2018-03-27T11:19:25.064Z,10.30
2018-03-27T11:21:53.288Z,10.20
2018-03-27T11:24:20.773Z,10.20
2018-03-27T11:26:48.995Z,10.30
2018-03-27T11:29:16.475Z,10.30
2018-03-27T11:31:43.988Z,10.40
2018-03-27T11:34:11.453Z,10.50
2018-03-27T11:36:38.914Z,10.60
2018-03-27T11:39:06.392Z,10.80
2018-03-27T11:41:33.847Z,10.90
2018-03-27T11:44:01.310Z,10.90
2018-03-27T11:46:28.803Z,10.90
2018-03-27T11:48:56.268Z,11.00
2018-03-27T11:51:24.508Z,10.80
2018-03-27T11:53:51.974Z,10.80
2018-03-27T11:56:19.438Z,10.90
2018-03-27T11:58:46.908Z,10.90
2018-03-27T12:01:15.147Z,10.70
2018-03-27T12:03:43.116Z,10.70
2018-03-27T12:06:10.571Z,10.50
2018-03-27T12:08:38.047Z,10.30
2018-03-27T12:11:05.512Z,10.20
2018-03-27T12:13:32.978Z,10.10
2018-03-27T12:16:01.223Z,9.90
2018-03-27T12:18:28.677Z,9.90
2018-03-27T12:20:56.143Z,9.90
2018-03-27T12:23:23.632Z,9.70
2018-03-27T12:25:51.861Z,9.80
2018-03-27T12:28:19.317Z,9.70
2018-03-27T12:30:46.800Z,9.90
2018-03-27T12:33:14.271Z,9.80
2018-03-27T12:35:42.565Z,9.70
2018-03-27T12:38:10.797Z,9.70
2018-03-27T12:40:38.260Z,9.70
2018-03-27T12:43:05.716Z,9.50
2018-03-27T12:45:33.199Z,9.40
2018-03-27T12:48:01.431Z,9.30
2018-03-27T12:50:28.898Z,9.20
2018-03-27T12:52:56.363Z,9.00
2018-03-27T12:55:24.078Z,9.00
2018-03-27T12:57:51.543Z,8.80
2018-03-27T13:00:19.044Z,8.70
2018-03-27T13:02:46.526Z,8.50
2018-03-27T13:05:14.758Z,8.50
2018-03-27T13:07:42.235Z,8.50
2018-03-27T13:10:09.687Z,8.60
2018-03-27T13:12:37.152Z,8.50
2018-03-27T13:15:04.625Z,8.60
2018-03-27T13:17:32.848Z,8.50
2018-03-27T13:20:00.310Z,8.50
2018-03-27T13:22:27.788Z,8.40
2018-03-27T13:24:55.252Z,8.40
2018-03-27T13:27:22.723Z,8.30
2018-03-27T13:29:50.979Z,8.30
2018-03-27T13:32:18.450Z,8.30
2018-03-27T13:34:45.890Z,8.40
2018-03-27T13:37:13.378Z,8.40
2018-03-27T13:39:40.871Z,8.50
2018-03-27T13:42:08.339Z,8.70
2018-03-27T13:44:35.806Z,8.80
2018-03-27T13:47:03.275Z,8.90
2018-03-27T13:49:30.734Z,8.80
2018-03-27T13:51:58.272Z,9.00
2018-03-27T13:54:25.731Z,8.90
2018-03-27T13:56:53.201Z,8.80
2018-03-27T13:59:20.682Z,8.70
2018-03-27T14:01:48.906Z,8.50
2018-03-27T14:04:16.372Z,8.50
2018-03-27T14:06:44.639Z,8.50
2018-03-27T14:09:12.098Z,8.50
2018-03-27T14:11:39.558Z,8.50
2018-03-27T14:14:07.051Z,8.50
2018-03-27T14:16:34.534Z,8.40
2018-03-27T14:19:02.222Z,8.20
2018-03-27T14:21:29.699Z,8.10
2018-03-27T14:23:57.174Z,8.10
2018-03-27T14:26:24.727Z,7.90
2018-03-27T14:28:52.980Z,8.00
2018-03-27T14:31:20.444Z,8.00
2018-03-27T14:33:47.906Z,7.90
2018-03-27T14:36:15.847Z,7.90
2018-03-27T14:38:43.307Z,7.90
2018-03-27T14:41:10.763Z,8.00
2018-03-27T14:43:38.251Z,8.00
2018-03-27T14:46:05.720Z,8.00
2018-03-27T14:48:33.190Z,8.00
2018-03-27T14:51:01.450Z,8.10
2018-03-27T14:53:28.920Z,8.00
2018-03-27T14:55:57.147Z,8.00
2018-03-27T14:58:24.638Z,8.00
2018-03-27T15:00:52.101Z,8.00
2018-03-27T15:03:19.569Z,7.90
2018-03-27T15:05:47.855Z,8.00
2018-03-27T15:08:16.083Z,7.90
2018-03-27T15:10:44.252Z,7.90
2018-03-27T15:13:11.836Z,7.90
2018-03-27T15:15:39.305Z,7.80
2018-03-27T15:18:07.541Z,7.80
2018-03-27T15:20:35.038Z,7.80
2018-03-27T15:23:03.303Z,7.90
2018-03-27T15:25:32.275Z,8.00
2018-03-27T15:27:59.783Z,8.00
2018-03-27T15:30:27.250Z,8.10
2018-03-27T15:32:54.712Z,8.20
2018-03-27T15:35:22.200Z,8.20
2018-03-27T15:37:49.660Z,8.10
2018-03-27T15:40:17.119Z,8.20
2018-03-27T15:42:44.591Z,8.20
2018-03-27T15:45:12.053Z,8.10
2018-03-27T15:47:39.515Z,8.10
2018-03-27T15:50:07.770Z,8.20
2018-03-27T15:52:35.230Z,8.20
2018-03-27T15:55:02.803Z,8.20
2018-03-27T15:57:30.308Z,8.20
2018-03-27T15:59:57.767Z,8.20
2018-03-27T16:02:25.231Z,8.10
2018-03-27T16:04:52.725Z,8.20
2018-03-27T16:07:20.206Z,8.20
2018-03-27T16:09:47.678Z,8.20
2018-03-27T16:12:15.170Z,8.30
2018-03-27T16:14:42.654Z,8.30
2018-03-27T16:17:10.115Z,8.30
2018-03-27T16:19:37.615Z,8.30
2018-03-27T16:22:05.088Z,8.30
2018-03-27T16:24:32.544Z,8.20
2018-03-27T16:27:00.023Z,8.10
2018-03-27T16:29:27.482Z,8.10
2018-03-27T16:31:54.961Z,8.00
2018-03-27T16:34:23.212Z,7.90
2018-03-27T16:36:50.799Z,7.90
2018-03-27T16:39:19.030Z,7.80
2018-03-27T16:41:46.523Z,7.80
2018-03-27T16:44:15.526Z,7.70
2018-03-27T16:46:43.886Z,7.60
2018-03-27T16:49:11.411Z,7.60
2018-03-27T16:51:39.221Z,7.60
2018-03-27T16:54:06.778Z,7.60
2018-03-27T16:56:35.146Z,7.60
2018-03-27T16:59:02.620Z,7.60
2018-03-27T17:01:30.837Z,7.60
2018-03-27T17:03:58.311Z,7.60
2018-03-27T17:06:25.805Z,7.60
2018-03-27T17:08:54.053Z,7.40
2018-03-27T17:11:21.513Z,7.40
2018-03-27T17:13:49.035Z,7.40
2018-03-27T17:16:16.499Z,7.40
2018-03-27T17:18:43.966Z,7.40
2018-03-27T17:21:11.451Z,7.30
2018-03-27T17:23:39.011Z,7.30
2018-03-27T17:26:06.536Z,7.20
2018-03-27T17:28:34.035Z,7.20
2018-03-27T17:31:01.607Z,7.20
2018-03-27T17:33:29.849Z,7.20
2018-03-27T17:35:57.342Z,7.20
2018-03-27T17:38:25.590Z,7.20
2018-03-27T17:40:54.594Z,7.20
2018-03-27T17:43:22.084Z,7.20
2018-03-27T17:45:49.545Z,7.20
2018-03-27T17:48:17.033Z,7.20
2018-03-27T17:50:44.523Z,7.20
2018-03-27T17:53:13.178Z,7.20
2018-03-27T17:55:40.643Z,7.20
2018-03-27T17:58:08.138Z,7.20
2018-03-27T18:00:36.361Z,7.10
2018-03-27T18:03:04.083Z,7.10
2018-03-27T18:05:31.611Z,7.10
2018-03-27T18:07:59.083Z,7.10
2018-03-27T18:10:27.342Z,7.10
2018-03-27T18:12:54.835Z,7.10
2018-03-27T18:15:22.371Z,7.10
2018-03-27T18:17:50.610Z,7.10
2018-03-27T18:20:18.086Z,7.10
2018-03-27T18:22:46.316Z,7.10
2018-03-27T18:25:13.781Z,7.00
2018-03-27T18:27:41.265Z,7.10
2018-03-27T18:30:08.731Z,7.10
2018-03-27T18:32:36.271Z,7.00
2018-03-27T18:35:03.740Z,7.10
2018-03-27T18:37:31.257Z,7.10
2018-03-27T18:39:58.735Z,7.10
2018-03-27T18:42:26.962Z,7.10
2018-03-27T18:44:55.247Z,7.00
2018-03-27T18:47:23.490Z,7.00
2018-03-27T18:49:50.956Z,7.00
2018-03-27T18:52:18.435Z,7.10
2018-03-27T18:54:45.967Z,7.00
2018-03-27T18:57:13.427Z,7.00
2018-03-27T18:59:41.698Z,7.10
2018-03-27T19:02:09.191Z,7.10
2018-03-27T19:04:38.071Z,7.10
2018-03-27T19:07:06.423Z,7.00
2018-03-27T19:09:33.914Z,7.00
2018-03-27T19:12:02.103Z,7.10
2018-03-27T19:14:29.575Z,7.10
2018-03-27T19:16:57.065Z,7.00
2018-03-27T19:19:24.657Z,7.10
2018-03-27T19:21:52.203Z,7.10
2018-03-27T19:24:20.423Z,7.10
2018-03-27T19:26:47.968Z,7.10
2018-03-27T19:29:15.443Z,7.10
2018-03-27T19:31:42.908Z,7.10
2018-03-27T19:34:10.523Z,7.10
2018-03-27T19:36:38.031Z,7.10
2018-03-27T19:39:05.503Z,7.10
2018-03-27T19:41:32.983Z,7.10
2018-03-27T19:44:01.216Z,7.10
2018-03-27T19:46:28.699Z,7.10
2018-03-27T19:48:56.174Z,7.10
2018-03-27T19:51:24.411Z,7.10
2018-03-27T19:53:51.890Z,7.10
2018-03-27T19:56:19.356Z,7.10
2018-03-27T19:58:47.641Z,7.10
2018-03-27T20:01:15.979Z,7.10
2018-03-27T20:03:43.550Z,7.10
2018-03-27T20:06:11.022Z,7.10
2018-03-27T20:08:38.622Z,7.10
2018-03-27T20:11:06.106Z,7.10
2018-03-27T20:13:34.351Z,7.10
2018-03-27T20:16:01.841Z,7.10
2018-03-27T20:18:29.318Z,7.10
2018-03-27T20:20:59.301Z,7.10
2018-03-27T20:23:26.785Z,7.10
2018-03-27T20:25:54.250Z,7.10
2018-03-27T20:28:21.910Z,7.10
2018-03-27T20:30:49.370Z,7.10
2018-03-27T20:33:16.830Z,7.20
2018-03-27T20:35:45.083Z,7.10
2018-03-27T20:38:12.718Z,7.10
2018-03-27T20:40:40.123Z,7.10
2018-03-27T20:43:07.618Z,7.20
2018-03-27T20:45:35.082Z,7.20
2018-03-27T20:48:04.025Z,7.20
2018-03-27T20:50:31.580Z,7.20
2018-03-27T20:52:59.199Z,7.20
2018-03-27T20:55:26.785Z,7.20
2018-03-27T20:57:55.063Z,7.10
2018-03-27T21:00:22.542Z,7.10
2018-03-27T21:02:50.003Z,7.10
2018-03-27T21:05:18.258Z,7.20
2018-03-27T21:07:46.554Z,7.20
2018-03-27T21:10:14.792Z,7.20
2018-03-27T21:12:43.043Z,7.20
2018-03-27T21:15:10.523Z,7.20
2018-03-27T21:17:37.994Z,7.20
2018-03-27T21:20:05.491Z,7.20
2018-03-27T21:22:32.975Z,7.20
2018-03-27T21:25:00.440Z,7.20
2018-03-27T21:27:27.907Z,7.20
2018-03-27T21:29:55.387Z,7.20
2018-03-27T21:32:22.948Z,7.20
2018-03-27T21:34:50.403Z,7.20
2018-03-27T21:37:17.963Z,7.20
2018-03-27T21:39:45.426Z,7.20
2018-03-27T21:42:12.971Z,7.20
2018-03-27T21:44:40.460Z,7.30
2018-03-27T21:47:08.687Z,7.20
2018-03-27T21:49:36.146Z,7.20
2018-03-27T21:52:03.657Z,7.20
2018-03-27T21:54:31.876Z,7.20
2018-03-27T21:56:59.338Z,7.20
2018-03-27T21:59:26.838Z,7.20
2018-03-27T22:01:55.071Z,7.20
2018-03-27T22:04:22.527Z,7.20
2018-03-27T22:06:49.995Z,7.20
2018-03-27T22:09:17.456Z,7.20
2018-03-27T22:11:44.939Z,7.20
2018-03-27T22:14:13.184Z,7.20
2018-03-27T22:16:40.638Z,7.20
2018-03-27T22:19:08.114Z,7.20
2018-03-27T22:21:36.350Z,7.20
2018-03-27T22:24:03.824Z,7.20
2018-03-27T22:26:31.998Z,7.30
2018-03-27T22:28:59.564Z,7.30
2018-03-27T22:31:27.063Z,7.20
2018-03-27T22:33:54.492Z,7.20
2018-03-27T22:36:22.735Z,7.30
2018-03-27T22:38:50.200Z,7.30
2018-03-27T22:41:17.656Z,7.30
2018-03-27T22:43:45.223Z,7.20
2018-03-27T22:46:12.696Z,7.20
2018-03-27T22:48:40.918Z,7.30
2018-03-27T22:51:09.446Z,7.30
2018-03-27T22:53:36.906Z,7.20
2018-03-27T22:56:05.126Z,7.20
2018-03-27T22:58:32.606Z,7.20
2018-03-27T23:01:00.092Z,7.10
2018-03-27T23:03:28.347Z,7.20
2018-03-27T23:05:55.824Z,7.20
2018-03-27T23:08:23.281Z,7.20
2018-03-27T23:10:50.825Z,7.20
2018-03-27T23:13:18.299Z,7.20
2018-03-27T23:15:46.543Z,7.30
2018-03-27T23:18:14.050Z,7.30
2018-03-27T23:20:42.288Z,7.30
2018-03-27T23:23:09.739Z,7.30
2018-03-27T23:25:37.201Z,7.30
2018-03-27T23:28:05.159Z,7.30
2018-03-27T23:30:32.630Z,7.30
2018-03-27T23:33:00.103Z,7.30
2018-03-27T23:35:28.351Z,7.30
2018-03-27T23:37:55.810Z,7.30
2018-03-27T23:40:23.283Z,7.40
2018-03-27T23:42:50.851Z,7.30
2018-03-27T23:45:18.323Z,7.30
2018-03-27T23:47:46.551Z,7.30
2018-03-27T23:50:14.027Z,7.30
2018-03-27T23:52:41.599Z,7.30
2018-03-27T23:55:09.836Z,7.20
2018-03-27T23:57:37.428Z,7.20
